Jerez, Spain
Current Conditions -  °F | °C
As of 11:00 PM on Saturday 25 Oct 2014 (Local Time) from LEJR Reporting Station
Clear Clear  
Wind Chill: 63°   Ceiling: Unl
Heat Index: 63°   Visibility: 6mi
Dew Point: 50°   Wind: 0mph
Humidity: 63%   Direction: NA
Pressure: 30.06"   Gusts: NA
Location:  36.69°N, 6.14°W
Report Text: LEJR 252100Z 00000KT CAVOK 17/10 Q1018
Loading
Personal Weather Stations






























Interactive Weather Map
Tropical Storm Tracking
New forecast layout! Learn more

10-Day Weather Forecast

Advertisements
Track Severe Weather on mobile